PWSweather.com
Personal Weather Stations
Station Observations
EDDERTON
Rossshire, EddertonGB IV191LA

RossshireEddertonGB IV191LA

Lat: 57.838, Lon: -4.176

Elevation: 60

Station Type: Davis Vantage PRO2 Wireless With Solar Sensor

http://www.ardmore-lodge.com

Latest ConditionsUpdated 12:45:00 PM GMT Monday, Jan 16, 2017
Currently Today's Max Today's Min Today's Average
Temperature 49.8°F9.9°C 49.8°F9.9°C 43.2°F6.2°C 46.0°F7.8°C
Dew Point 48.1°F8.9°C 48.1°F8.9°C 42.1°F5.6°C 45.0°F7.2°C
Winds 5.8 mph WSW9.3 kmh WSW 5.8 mph WSW9.3 kmh WSW - 1.1 mph 1.8 kmh
Wind Gusts 6.9 mph11.1 kmh 6.9 mph11.1 kmh - -
Humidity 94% 97% 94% 96%
Pressure 30.24 in1024.0 mb 30.25 in1024.4 mb 30.18 in1022.0 mb -
Hour Temp Dew Point Humidity Winds Wind Gusts Pressure Precip Precip Rate Daily Precip Total
12:45 PM 49.8°F9.9°C 48.1°F8.9°C 94% 5.8 mph WSW9.3 kmh WSW 6.9 mph11.1 kmh 30.24 in1024.0 mb - 0.00 in0.0 mm 0.00 in0.0 mm
12:30 PM 49.7°F9.8°C 48.0°F8.9°C 94% 3.5 mph WSW5.6 kmh WSW 5.8 mph9.3 kmh 30.24 in1024.0 mb - 0.00 in0.0 mm 0.00 in0.0 mm
12:15 PM 49.0°F9.4°C 47.6°F8.7°C 95% 2.3 mph WSW3.7 kmh WSW 3.5 mph5.6 kmh 30.24 in1024.0 mb - 0.00 in0.0 mm 0.00 in0.0 mm
12:00 PM 48.3°F9.1°C 46.9°F8.3°C 95% 2.3 mph WSW3.7 kmh WSW 3.5 mph5.6 kmh 30.24 in1024.0 mb - 0.00 in0.0 mm 0.00 in0.0 mm
11:45 AM 47.6°F8.7°C 46.5°F8.1°C 96% 1.2 mph WSW1.9 kmh WSW 2.3 mph3.7 kmh 30.24 in1024.0 mb - 0.00 in0.0 mm 0.00 in0.0 mm
11:30 AM 47.2°F8.4°C 45.8°F7.7°C 95% Calm Calm -- 30.23 in1023.7 mb - 0.00 in0.0 mm 0.00 in0.0 mm
11:15 AM 47.7°F8.7°C 46.3°F7.9°C 95% Calm Calm 1.2 mph1.9 kmh 30.24 in1024.0 mb - 0.00 in0.0 mm 0.00 in0.0 mm
11:00 AM 47.7°F8.7°C 46.9°F8.3°C 97% 2.3 mph WSW3.7 kmh WSW 3.5 mph5.6 kmh 30.24 in1024.0 mb - 0.00 in0.0 mm 0.00 in0.0 mm
10:45 AM 46.1°F7.8°C 45.3°F7.4°C 97% 2.3 mph W3.7 kmh W 3.5 mph5.6 kmh 30.24 in1024.0 mb - 0.00 in0.0 mm 0.00 in0.0 mm
10:30 AM 44.4°F6.9°C 43.6°F6.4°C 97% Calm Calm -- 30.25 in1024.4 mb - 0.00 in0.0 mm 0.00 in0.0 mm
10:15 AM 43.6°F6.4°C 42.5°F5.8°C 96% Calm Calm 1.2 mph1.9 kmh 30.24 in1024.0 mb - 0.00 in0.0 mm 0.00 in0.0 mm
10:00 AM 43.5°F6.4°C 42.4°F5.8°C 96% Calm Calm -- 30.24 in1024.0 mb - 0.00 in0.0 mm 0.00 in0.0 mm
09:45 AM 43.9°F6.6°C 42.8°F6.0°C 96% 1.2 mph W1.9 kmh W 3.5 mph5.6 kmh 30.24 in1024.0 mb - 0.00 in0.0 mm 0.00 in0.0 mm
09:30 AM 43.6°F6.4°C 42.5°F5.8°C 96% 1.2 mph W1.9 kmh W 2.3 mph3.7 kmh 30.24 in1024.0 mb - 0.00 in0.0 mm 0.00 in0.0 mm
09:15 AM 44.4°F6.9°C 43.3°F6.3°C 96% 1.2 mph W1.9 kmh W 3.5 mph5.6 kmh 30.23 in1023.7 mb - 0.00 in0.0 mm 0.00 in0.0 mm
09:00 AM 44.5°F6.9°C 43.4°F6.3°C 96% 2.3 mph W3.7 kmh W 4.6 mph7.4 kmh 30.23 in1023.7 mb - 0.00 in0.0 mm 0.00 in0.0 mm
08:45 AM 43.9°F6.6°C 42.8°F6.0°C 96% 2.3 mph W3.7 kmh W 3.5 mph5.6 kmh 30.23 in1023.7 mb - 0.00 in0.0 mm 0.00 in0.0 mm
08:30 AM 43.9°F6.6°C 42.9°F6.1°C 96% Calm Calm 2.3 mph3.7 kmh 30.23 in1023.7 mb - 0.00 in0.0 mm 0.00 in0.0 mm
08:15 AM 43.3°F6.3°C 42.2°F5.7°C 96% 1.2 mph W1.9 kmh W 3.5 mph5.6 kmh 30.23 in1023.7 mb - 0.00 in0.0 mm 0.00 in0.0 mm
08:00 AM 43.5°F6.4°C 42.4°F5.8°C 96% 1.2 mph W1.9 kmh W 3.5 mph5.6 kmh 30.22 in1023.4 mb - 0.00 in0.0 mm 0.00 in0.0 mm
07:45 AM 43.7°F6.5°C 42.6°F5.9°C 96% 1.2 mph W1.9 kmh W 1.2 mph1.9 kmh 30.22 in1023.4 mb - 0.00 in0.0 mm 0.00 in0.0 mm
07:30 AM 43.2°F6.2°C 42.1°F5.6°C 96% 2.3 mph W3.7 kmh W 3.5 mph5.6 kmh 30.22 in1023.4 mb - 0.00 in0.0 mm 0.00 in0.0 mm
07:15 AM 43.4°F6.3°C 42.4°F5.8°C 96% 1.2 mph W1.9 kmh W 2.3 mph3.7 kmh 30.22 in1023.4 mb - 0.00 in0.0 mm 0.00 in0.0 mm
07:00 AM 43.9°F6.6°C 42.8°F6.0°C 96% 1.2 mph W1.9 kmh W 3.5 mph5.6 kmh 30.21 in1023.0 mb - 0.00 in0.0 mm 0.00 in0.0 mm
06:45 AM 44.2°F6.8°C 43.1°F6.2°C 96% 1.2 mph W1.9 kmh W 2.3 mph3.7 kmh 30.20 in1022.7 mb - 0.00 in0.0 mm 0.00 in0.0 mm
06:30 AM 45.1°F7.3°C 43.7°F6.5°C 95% 1.2 mph W1.9 kmh W 2.3 mph3.7 kmh 30.21 in1023.0 mb - 0.00 in0.0 mm 0.00 in0.0 mm
06:15 AM 46.5°F8.1°C 45.5°F7.5°C 96% 1.2 mph W1.9 kmh W 2.3 mph3.7 kmh 30.21 in1023.0 mb - 0.00 in0.0 mm 0.00 in0.0 mm
06:00 AM 45.9°F7.7°C 45.1°F7.3°C 97% 3.5 mph W5.6 kmh W 3.5 mph5.6 kmh 30.21 in1023.0 mb - 0.00 in0.0 mm 0.00 in0.0 mm
05:45 AM 46.4°F8.0°C 45.3°F7.4°C 96% Calm Calm -- 30.21 in1023.0 mb - 0.00 in0.0 mm 0.00 in0.0 mm
05:30 AM 47.9°F8.8°C 47.1°F8.4°C 97% 2.3 mph W3.7 kmh W 4.6 mph7.4 kmh 30.20 in1022.7 mb - 0.00 in0.0 mm 0.00 in0.0 mm
05:15 AM 46.6°F8.1°C 45.8°F7.7°C 97% 1.2 mph W1.9 kmh W 3.5 mph5.6 kmh 30.20 in1022.7 mb - 0.00 in0.0 mm 0.00 in0.0 mm
05:00 AM 45.9°F7.7°C 45.1°F7.3°C 97% Calm Calm 1.2 mph1.9 kmh 30.20 in1022.7 mb - 0.00 in0.0 mm 0.00 in0.0 mm
04:45 AM 46.0°F7.8°C 44.9°F7.2°C 96% Calm Calm -- 30.20 in1022.7 mb - 0.00 in0.0 mm 0.00 in0.0 mm
04:30 AM 46.2°F7.9°C 45.4°F7.4°C 97% Calm Calm -- 30.20 in1022.7 mb - 0.00 in0.0 mm 0.00 in0.0 mm
04:15 AM 46.0°F7.8°C 45.2°F7.3°C 97% 1.2 mph W1.9 kmh W 2.3 mph3.7 kmh 30.19 in1022.4 mb - 0.00 in0.0 mm 0.00 in0.0 mm
04:00 AM 46.0°F7.8°C 45.2°F7.3°C 97% Calm Calm -- 30.19 in1022.4 mb - 0.00 in0.0 mm 0.00 in0.0 mm
03:45 AM 46.1°F7.8°C 45.0°F7.2°C 96% Calm Calm -- 30.19 in1022.4 mb - 0.00 in0.0 mm 0.00 in0.0 mm
03:30 AM 46.3°F7.9°C 45.5°F7.5°C 97% Calm Calm -- 30.19 in1022.4 mb - 0.00 in0.0 mm 0.00 in0.0 mm
03:15 AM 46.2°F7.9°C 45.4°F7.4°C 97% Calm Calm -- 30.19 in1022.4 mb - 0.00 in0.0 mm 0.00 in0.0 mm
03:00 AM 45.9°F7.7°C 45.1°F7.3°C 97% 2.3 mph W3.7 kmh W 3.5 mph5.6 kmh 30.19 in1022.4 mb - 0.00 in0.0 mm 0.00 in0.0 mm
02:45 AM 46.4°F8.0°C 45.3°F7.4°C 96% 1.2 mph W1.9 kmh W 2.3 mph3.7 kmh 30.19 in1022.4 mb - 0.00 in0.0 mm 0.00 in0.0 mm
02:30 AM 46.6°F8.1°C 45.8°F7.7°C 97% Calm Calm -- 30.19 in1022.4 mb - 0.00 in0.0 mm 0.00 in0.0 mm
02:15 AM 46.6°F8.1°C 45.8°F7.7°C 97% 1.2 mph W1.9 kmh W 3.5 mph5.6 kmh 30.19 in1022.4 mb - 0.00 in0.0 mm 0.00 in0.0 mm
02:00 AM 46.7°F8.2°C 45.6°F7.6°C 96% 2.3 mph W3.7 kmh W 2.3 mph3.7 kmh 30.19 in1022.4 mb - 0.00 in0.0 mm 0.00 in0.0 mm
01:45 AM 46.8°F8.2°C 45.7°F7.6°C 96% Calm Calm -- 30.19 in1022.4 mb - 0.00 in0.0 mm 0.00 in0.0 mm
01:30 AM 46.8°F8.2°C 46.0°F7.8°C 97% Calm Calm -- 30.18 in1022.0 mb - 0.00 in0.0 mm 0.00 in0.0 mm
01:15 AM 47.0°F8.3°C 45.9°F7.7°C 96% Calm Calm 2.3 mph3.7 kmh 30.18 in1022.0 mb - 0.00 in0.0 mm 0.00 in0.0 mm
01:00 AM 47.8°F8.8°C 46.9°F8.3°C 97% Calm Calm -- 30.18 in1022.0 mb - 0.00 in0.0 mm 0.00 in0.0 mm
12:45 AM 47.7°F8.7°C 46.9°F8.3°C 97% Calm Calm -- 30.19 in1022.4 mb - 0.00 in0.0 mm 0.00 in0.0 mm
12:30 AM 48.0°F8.9°C 46.9°F8.3°C 96% Calm Calm -- 30.19 in1022.4 mb - 0.00 in0.0 mm 0.00 in0.0 mm
12:15 AM 47.8°F8.8°C 47.0°F8.3°C 97% 2.3 mph W3.7 kmh W 3.5 mph5.6 kmh 30.18 in1022.0 mb - 0.00 in0.0 mm 0.00 in0.0 mm
12:00 AM 47.5°F8.6°C 46.7°F8.2°C 97% 1.2 mph W1.9 kmh W 3.5 mph5.6 kmh 30.18 in1022.0 mb - 0.00 in0.0 mm 0.00 in0.0 mm